Time;durP1;ratioP1;P1;durP2;ratioP2;P2;SDS_P1;SDS_P2;PMS_P1;PMS_P2;Temp;Humidity;BMP_temperature;BMP_pressure;BME280_temperature;BME280_humidity;BME280_pressure;Samples;Min_cycle;Max_cycle;Signal;HPM_P1;HPM_P2
2022/06/17 00:02:00;;;;;;;4.67;2.20;;;;;;;18.67;100.00;99738.25;5092234;28;20194;-80
2022/06/17 00:04:29;;;;;;;2.87;1.90;;;;;;;18.49;100.00;99740.69;5093414;28;20200;-81
2022/06/17 00:07:05;;;;;;;3.07;1.93;;;;;;;18.35;100.00;99745.56;5085613;28;20728;-81
2022/06/17 00:09:37;;;;;;;3.23;2.00;;;;;;;18.52;100.00;99737.72;5093356;28;20183;-80
2022/06/17 00:12:08;;;;;;;4.90;2.20;;;;;;;18.35;100.00;99741.06;5093433;28;20274;-81
2022/06/17 00:15:11;;;;;;;3.10;2.13;;;;;;;18.27;100.00;99743.53;5094395;28;20223;-80
2022/06/17 00:17:28;;;;;;;3.13;1.98;;;;;;;18.05;100.00;99732.94;5093942;28;20210;-80
2022/06/17 00:19:58;;;;;;;2.33;1.90;;;;;;;18.24;100.00;99733.94;5091877;28;20191;-80
2022/06/17 00:22:26;;;;;;;3.40;2.40;;;;;;;17.94;100.00;99731.19;5096775;28;20195;-80
2022/06/17 00:24:55;;;;;;;4.27;2.10;;;;;;;17.96;100.00;99718.53;5073179;28;20255;-80
2022/06/17 00:27:23;;;;;;;3.03;2.00;;;;;;;17.77;100.00;99727.28;5094405;28;20284;-81
2022/06/17 00:29:54;;;;;;;3.33;1.90;;;;;;;17.78;100.00;99728.13;5096536;28;20203;-80
2022/06/17 00:32:22;;;;;;;3.57;2.30;;;;;;;17.36;100.00;99726.19;5094138;28;20196;-80
2022/06/17 00:34:52;;;;;;;3.73;2.40;;;;;;;17.26;100.00;99730.59;5092599;28;20223;-80
2022/06/17 00:37:21;;;;;;;3.80;2.20;;;;;;;16.92;100.00;99726.34;5093211;28;20196;-80
2022/06/17 00:39:49;;;;;;;4.10;2.33;;;;;;;17.31;100.00;99724.88;5087812;28;20192;-80
2022/06/17 00:42:19;;;;;;;2.93;1.90;;;;;;;17.15;100.00;99720.78;5091266;28;20187;-80
2022/06/17 00:44:55;;;;;;;5.13;2.17;;;;;;;17.28;100.00;99733.19;5092535;28;20204;-80
2022/06/17 00:47:31;;;;;;;3.27;2.30;;;;;;;17.19;100.00;99737.47;5093117;28;20257;-80
2022/06/17 00:50:13;;;;;;;2.47;2.07;;;;;;;17.20;100.00;99744.50;5088872;28;20273;-80
2022/06/17 00:52:46;;;;;;;3.90;2.37;;;;;;;17.18;100.00;99757.19;5095847;28;20239;-80
2022/06/17 00:55:22;;;;;;;2.57;1.90;;;;;;;16.94;100.00;99762.69;5090100;28;20207;-80
2022/06/17 00:57:50;;;;;;;4.47;2.27;;;;;;;17.12;100.00;99768.38;5092597;28;20199;-80
2022/06/17 01:00:20;;;;;;;2.73;2.23;;;;;;;17.03;100.00;99769.97;5090254;28;20199;-80
2022/06/17 01:02:53;;;;;;;2.60;2.20;;;;;;;17.09;100.00;99765.97;5093500;28;20211;-80
2022/06/17 01:05:29;;;;;;;4.67;2.60;;;;;;;16.65;100.00;99781.03;5092758;28;20207;-79
2022/06/17 01:08:02;;;;;;;3.30;2.50;;;;;;;16.66;100.00;99782.72;5088772;28;20229;-80
2022/06/17 01:10:31;;;;;;;3.93;2.50;;;;;;;16.39;100.00;99791.09;5093366;28;20195;-80
2022/06/17 01:13:04;;;;;;;3.30;2.17;;;;;;;16.44;100.00;99793.44;5096667;28;20219;-80
2022/06/17 01:15:35;;;;;;;3.10;2.20;;;;;;;16.56;100.00;99792.47;5093981;28;20192;-80
2022/06/17 01:18:05;;;;;;;3.37;2.33;;;;;;;16.05;100.00;99794.69;5093399;28;20220;-80
2022/06/17 01:20:37;;;;;;;6.47;2.40;;;;;;;15.83;100.00;99795.47;5090386;28;20203;-80
2022/06/17 01:23:11;;;;;;;4.17;2.40;;;;;;;15.71;100.00;99794.56;5093528;28;20556;-80
2022/06/17 01:25:43;;;;;;;3.17;2.47;;;;;;;15.73;100.00;99795.31;5091962;28;20188;-80
2022/06/17 01:28:13;;;;;;;4.40;2.97;;;;;;;15.63;100.00;99789.81;5093296;28;20219;-81
2022/06/17 01:30:45;;;;;;;3.40;2.17;;;;;;;15.66;100.00;99786.91;5092479;28;20682;-80
2022/06/17 01:33:18;;;;;;;5.37;2.90;;;;;;;15.60;100.00;99782.00;5087840;28;20679;-80
2022/06/17 01:35:52;;;;;;;3.70;2.50;;;;;;;15.65;100.00;99779.00;5091485;28;20256;-80
2022/06/17 01:38:27;;;;;;;3.90;2.50;;;;;;;15.64;100.00;99782.66;5093576;28;20227;-80
2022/06/17 01:40:57;;;;;;;4.83;2.33;;;;;;;15.90;100.00;99773.50;5096353;28;20210;-80
2022/06/17 01:43:31;;;;;;;3.30;2.60;;;;;;;15.80;100.00;99775.16;5094043;28;20188;-80
2022/06/17 01:46:03;;;;;;;3.57;2.60;;;;;;;15.79;100.00;99772.63;5097350;28;20196;-80
2022/06/17 01:48:37;;;;;;;4.03;2.40;;;;;;;15.90;100.00;99775.31;5093859;28;20219;-80
2022/06/17 01:51:07;;;;;;;2.90;2.50;;;;;;;15.67;100.00;99772.56;5076098;28;20203;-80
2022/06/17 01:53:43;;;;;;;5.33;2.90;;;;;;;15.71;100.00;99773.19;5091893;28;20227;-80
2022/06/17 01:56:15;;;;;;;2.83;2.30;;;;;;;15.61;100.00;99769.50;5009192;28;20213;-80
2022/06/17 01:58:47;;;;;;;5.10;2.63;;;;;;;15.35;100.00;99766.09;5009099;28;20205;-79
2022/06/17 02:01:17;;;;;;;4.00;2.30;;;;;;;15.44;100.00;99766.25;5010614;28;20195;-80
2022/06/17 02:03:50;;;;;;;2.77;2.40;;;;;;;15.44;100.00;99766.25;5011037;28;20670;-80
2022/06/17 02:06:26;;;;;;;4.53;2.60;;;;;;;15.31;100.00;99761.94;5005389;28;20228;-80
2022/06/17 02:08:56;;;;;;;2.87;2.40;;;;;;;15.15;100.00;99768.41;5008333;28;20222;-80
2022/06/17 02:11:25;;;;;;;4.03;2.70;;;;;;;15.11;100.00;99776.72;5005525;28;20201;-80
2022/06/17 02:13:53;;;;;;;3.70;2.47;;;;;;;15.13;100.00;99772.97;5014555;28;20241;-81
2022/06/17 02:16:22;;;;;;;4.63;2.80;;;;;;;15.11;100.00;99769.56;5013275;28;20199;-80
2022/06/17 02:18:53;;;;;;;3.40;2.70;;;;;;;15.08;100.00;99772.47;5014722;28;20214;-80
2022/06/17 02:21:29;;;;;;;3.77;2.60;;;;;;;15.21;100.00;99766.25;5068174;28;20206;-81
2022/06/17 02:24:01;;;;;;;2.87;2.50;;;;;;;15.20;100.00;99770.72;5096546;28;20295;-80
2022/06/17 02:26:32;;;;;;;2.50;2.30;;;;;;;15.28;100.00;99778.19;5096080;28;20206;-81
2022/06/17 02:29:02;;;;;;;5.93;2.37;;;;;;;15.27;100.00;99781.81;5096271;28;20216;-80
2022/06/17 02:31:31;;;;;;;4.43;2.80;;;;;;;15.44;100.00;99781.41;5094638;28;20203;-80
2022/06/17 02:34:01;;;;;;;3.37;2.57;;;;;;;15.20;100.00;99778.72;5092195;28;20709;-80
2022/06/17 02:36:36;;;;;;;2.60;2.33;;;;;;;15.22;100.00;99786.63;5094834;28;20214;-80
2022/06/17 02:39:06;;;;;;;4.73;2.80;;;;;;;15.26;100.00;99777.44;5094013;28;20199;-80
2022/06/17 02:41:36;;;;;;;4.27;2.97;;;;;;;15.23;100.00;99781.16;5095770;28;20674;-80
2022/06/17 02:44:11;;;;;;;4.33;2.90;;;;;;;15.51;100.00;99773.78;5096293;28;20200;-81
2022/06/17 02:46:42;;;;;;;3.37;2.60;;;;;;;15.22;100.00;99779.47;5096123;28;20202;-80
2022/06/17 02:49:16;;;;;;;3.63;2.70;;;;;;;15.32;100.00;99774.31;5090058;28;20219;-80
2022/06/17 02:51:45;;;;;;;3.60;2.53;;;;;;;15.23;100.00;99777.66;5097451;28;20195;-80
2022/06/17 02:54:25;;;;;;;3.63;2.50;;;;;;;15.28;100.00;99784.38;5092700;28;20256;-80
2022/06/17 02:56:57;;;;;;;6.27;2.77;;;;;;;15.25;100.00;99789.94;5095673;28;20203;-80
2022/06/17 02:59:29;;;;;;;2.50;2.30;;;;;;;15.17;100.00;99797.66;5088558;28;20198;-80
2022/06/17 03:02:02;;;;;;;3.20;2.20;;;;;;;15.04;100.00;99788.81;5094854;28;20206;-81
2022/06/17 03:04:33;;;;;;;5.37;2.63;;;;;;;15.12;100.00;99789.97;5089786;28;20198;-80
2022/06/17 03:07:02;;;;;;;4.93;3.00;;;;;;;15.21;100.00;99785.78;5093405;28;20203;-80
2022/06/17 03:09:34;;;;;;;4.37;2.70;;;;;;;15.50;100.00;99780.09;5092313;28;20219;-81
2022/06/17 03:12:05;;;;;;;4.03;2.43;;;;;;;15.34;100.00;99783.03;5095484;28;20247;-80
2022/06/17 03:14:41;;;;;;;4.73;2.57;;;;;;;15.17;100.00;99785.16;5094768;28;20259;-81
2022/06/17 03:17:13;;;;;;;3.17;2.73;;;;;;;15.19;100.00;99779.69;5091538;28;20183;-80
2022/06/17 03:19:41;;;;;;;6.23;3.20;;;;;;;15.23;100.00;99783.84;5091995;28;20234;-80
2022/06/17 03:22:13;;;;;;;4.83;2.77;;;;;;;14.71;100.00;99789.41;5088566;28;20188;-80
2022/06/17 03:24:50;;;;;;;4.07;2.30;;;;;;;14.72;100.00;99789.31;5090804;28;20215;-80
2022/06/17 03:27:25;;;;;;;3.53;2.90;;;;;;;14.91;100.00;99785.34;5095276;28;20195;-80
2022/06/17 03:29:56;;;;;;;3.33;3.00;;;;;;;14.77;100.00;99792.50;5092758;28;20219;-80
2022/06/17 03:32:32;;;;;;;5.57;2.90;;;;;;;14.82;100.00;99793.03;5091786;28;20191;-80
2022/06/17 03:35:00;;;;;;;4.50;2.80;;;;;;;14.73;100.00;99799.00;5093585;28;20226;-80
2022/06/17 03:37:35;;;;;;;5.23;2.60;;;;;;;14.89;100.00;99796.13;5091686;28;20188;-80
2022/06/17 03:40:12;;;;;;;3.90;2.60;;;;;;;14.97;100.00;99792.91;5092281;28;20283;-80
2022/06/17 03:42:53;;;;;;;3.97;2.70;;;;;;;15.03;100.00;99803.97;5092728;28;20195;-80
2022/06/17 03:45:26;;;;;;;4.37;3.13;;;;;;;14.94;100.00;99807.28;5093268;28;20199;-80
2022/06/17 03:48:03;;;;;;;4.50;3.20;;;;;;;14.90;100.00;99803.16;5094955;28;20247;-80
2022/06/17 03:50:35;;;;;;;4.60;3.03;;;;;;;14.62;100.00;99803.41;5090628;28;20206;-80
2022/06/17 03:53:06;;;;;;;3.13;2.73;;;;;;;14.47;100.00;99807.97;5095580;28;20229;-80
2022/06/17 03:55:37;;;;;;;3.73;2.67;;;;;;;14.47;100.00;99807.97;5097326;28;20681;-80
2022/06/17 03:58:05;;;;;;;6.77;3.10;;;;;;;14.58;100.00;99808.97;5053870;28;20200;-80
2022/06/17 04:00:42;;;;;;;4.87;2.63;;;;;;;14.67;100.00;99809.25;5091934;28;20203;-80
2022/06/17 04:03:16;;;;;;;3.07;2.77;;;;;;;14.71;100.00;99808.94;5096753;28;20204;-80
2022/06/17 04:05:48;;;;;;;3.57;2.60;;;;;;;14.92;100.00;99805.72;5093168;28;20187;-80
2022/06/17 04:08:16;;;;;;;4.60;2.70;;;;;;;14.87;100.00;99801.56;5088870;28;20204;-80
2022/06/17 04:10:46;;;;;;;4.33;2.90;;;;;;;14.85;100.00;99811.47;5089366;28;20200;-80
2022/06/17 04:13:18;;;;;;;3.90;2.80;;;;;;;14.75;100.00;99823.75;5094263;28;20279;-80
2022/06/17 04:15:51;;;;;;;4.33;2.83;;;;;;;14.82;100.00;99826.84;5094137;28;20204;-80
2022/06/17 04:18:19;;;;;;;3.33;3.00;;;;;;;14.74;100.00;99835.38;5094012;28;20207;-80
2022/06/17 04:20:51;;;;;;;4.40;3.10;;;;;;;14.63;100.00;99839.75;5094787;27;20207;-80
2022/06/17 04:23:23;;;;;;;4.17;3.40;;;;;;;14.70;100.00;99841.06;5090727;28;20676;-80
2022/06/17 04:25:57;;;;;;;4.17;3.00;;;;;;;14.88;100.00;99845.09;5094275;28;20203;-79
2022/06/17 04:28:28;;;;;;;3.80;3.27;;;;;;;14.80;100.00;99844.78;5090721;28;20196;-80
2022/06/17 04:31:01;;;;;;;4.47;2.90;;;;;;;15.07;100.00;99847.31;5096440;27;20217;-80
2022/06/17 04:33:33;;;;;;;3.63;2.97;;;;;;;15.33;100.00;99840.91;5086828;28;20227;-80
2022/06/17 04:36:19;;;;;;;5.90;3.33;;;;;;;15.37;100.00;99837.09;5091387;28;20253;-80
2022/06/17 04:38:53;;;;;;;4.50;2.73;;;;;;;15.32;100.00;99836.56;5092987;28;20261;-80
2022/06/17 04:41:27;;;;;;;3.53;2.70;;;;;;;15.34;100.00;99842.63;5075734;28;20210;-80
2022/06/17 04:43:58;;;;;;;4.33;3.00;;;;;;;15.40;100.00;99844.00;5091535;28;20205;-81
2022/06/17 04:46:33;;;;;;;5.27;3.07;;;;;;;15.38;100.00;99840.59;5094516;28;20191;-79
2022/06/17 04:49:03;;;;;;;5.73;3.53;;;;;;;15.41;100.00;99851.06;5093873;28;20214;-80
2022/06/17 04:51:34;;;;;;;4.53;2.73;;;;;;;15.40;100.00;99842.19;5093565;28;20210;-80
2022/06/17 04:54:06;;;;;;;4.97;3.47;;;;;;;15.33;100.00;99853.41;5093558;28;20230;-80
2022/06/17 04:56:42;;;;;;;3.90;3.10;;;;;;;15.54;100.00;99856.34;5088221;28;20207;-80
2022/06/17 04:59:27;;;;;;;4.40;3.10;;;;;;;15.33;100.00;99853.41;5093333;28;20261;-80
2022/06/17 05:01:56;;;;;;;4.87;3.60;;;;;;;15.40;100.00;99857.34;5090505;28;20188;-79
2022/06/17 05:04:25;;;;;;;4.80;3.10;;;;;;;15.62;100.00;99854.00;5091029;28;20198;-79
2022/06/17 05:06:54;;;;;;;6.30;3.17;;;;;;;15.67;100.00;99852.69;5092410;28;20219;-79
2022/06/17 05:09:27;;;;;;;4.77;3.30;;;;;;;15.74;100.00;99850.44;5093526;28;20298;-79
2022/06/17 05:12:00;;;;;;;6.27;3.17;;;;;;;15.88;100.00;99846.72;5091135;28;20647;-79
2022/06/17 05:14:41;;;;;;;4.00;3.10;;;;;;;16.11;100.00;99853.00;5091849;28;20187;-79
2022/06/17 05:17:10;;;;;;;3.90;3.20;;;;;;;16.07;100.00;99855.06;5095548;28;20199;-78
2022/06/17 05:19:38;;;;;;;3.70;2.90;;;;;;;16.27;100.00;99861.56;5092034;28;20191;-79
2022/06/17 05:22:19;;;;;;;4.17;3.63;;;;;;;16.39;100.00;99857.09;5094509;28;20203;-79
2022/06/17 05:24:47;;;;;;;6.87;3.93;;;;;;;16.50;100.00;99849.97;5093393;28;20202;-79
2022/06/17 05:27:17;;;;;;;5.17;3.50;;;;;;;16.60;100.00;99853.63;5093472;28;20206;-79
2022/06/17 05:29:45;;;;;;;5.87;3.33;;;;;;;16.58;100.00;99855.56;5092721;28;20220;-79
2022/06/17 05:32:18;;;;;;;4.23;3.30;;;;;;;16.53;100.00;99862.25;5091048;28;20196;-79
2022/06/17 05:34:47;;;;;;;6.20;3.30;;;;;;;16.63;100.00;99854.38;5091964;28;20224;-79
2022/06/17 05:37:16;;;;;;;5.57;3.17;;;;;;;16.77;100.00;99855.00;5087963;28;20199;-79
2022/06/17 05:39:45;;;;;;;4.80;2.90;;;;;;;16.96;100.00;99853.56;5095731;28;20188;-79
2022/06/17 05:42:13;;;;;;;3.70;3.17;;;;;;;17.20;100.00;99858.78;5095072;27;20215;-79
2022/06/17 05:44:43;;;;;;;5.87;3.17;;;;;;;17.21;100.00;99856.00;5094426;28;20195;-79
2022/06/17 05:47:11;;;;;;;5.30;2.97;;;;;;;17.20;100.00;99862.31;5093791;28;20207;-79
2022/06/17 05:49:40;;;;;;;5.47;3.10;;;;;;;17.34;100.00;99867.41;5095500;28;20215;-79
2022/06/17 05:52:10;;;;;;;5.53;2.97;;;;;;;17.34;100.00;99867.41;5096808;28;20187;-79
2022/06/17 05:54:39;;;;;;;5.70;3.00;;;;;;;17.47;100.00;99859.25;5095633;28;20599;-81
2022/06/17 05:57:07;;;;;;;3.30;3.00;;;;;;;17.61;100.00;99864.31;5097282;28;20203;-79
2022/06/17 05:59:35;;;;;;;4.70;3.17;;;;;;;17.73;100.00;99860.66;5096763;28;20199;-79
2022/06/17 06:02:06;;;;;;;3.27;2.90;;;;;;;17.84;100.00;99861.59;5096600;28;20278;-79
2022/06/17 06:04:34;;;;;;;5.40;3.20;;;;;;;17.78;100.00;99867.47;5095252;28;20275;-78
2022/06/17 06:07:03;;;;;;;4.07;3.27;;;;;;;17.93;100.00;99866.19;5095163;28;20206;-79
2022/06/17 06:09:31;;;;;;;4.57;3.03;;;;;;;18.01;100.00;99869.09;5096180;28;20203;-79
2022/06/17 06:11:59;;;;;;;5.17;2.90;;;;;;;18.13;100.00;99867.22;5094421;28;20207;-79
2022/06/17 06:14:27;;;;;;;5.23;3.10;;;;;;;18.38;100.00;99877.56;5096320;28;20275;-79
2022/06/17 06:17:00;;;;;;;3.73;2.70;;;;;;;18.48;100.00;99875.81;5094557;28;20291;-79
2022/06/17 06:19:33;;;;;;;3.77;2.97;;;;;;;18.43;100.00;99870.00;5095934;28;20192;-80
2022/06/17 06:22:01;;;;;;;4.17;3.13;;;;;;;18.40;100.00;99872.94;5098722;27;20202;-79
2022/06/17 06:24:30;;;;;;;3.90;2.90;;;;;;;18.64;100.00;99878.03;5096712;28;20199;-79
2022/06/17 06:26:58;;;;;;;6.07;3.30;;;;;;;18.90;100.00;99881.16;5090591;28;20222;-79
2022/06/17 06:29:29;;;;;;;3.87;2.90;;;;;;;19.01;100.00;99888.28;5096574;28;20191;-78
2022/06/17 06:31:57;;;;;;;5.53;2.47;;;;;;;18.89;100.00;99884.84;5095584;28;20212;-79
2022/06/17 06:34:25;;;;;;;3.87;2.70;;;;;;;19.02;100.00;99896.22;5095767;28;20219;-79
2022/06/17 06:36:55;;;;;;;4.30;2.90;;;;;;;19.21;100.00;99900.84;5095414;28;20271;-79
2022/06/17 06:39:23;;;;;;;5.57;3.10;;;;;;;19.00;100.00;99898.19;5097435;28;20643;-79
2022/06/17 06:41:51;;;;;;;6.63;2.67;;;;;;;18.71;100.00;99897.16;5094153;28;20222;-80
2022/06/17 06:44:20;;;;;;;4.57;2.70;;;;;;;19.07;100.00;99890.44;5094230;28;20195;-79
2022/06/17 06:46:49;;;;;;;4.03;3.00;;;;;;;19.48;100.00;99896.69;5098087;28;20209;-80
2022/06/17 06:49:17;;;;;;;2.90;2.60;;;;;;;19.24;100.00;99902.41;5095793;28;20202;-79
2022/06/17 06:51:45;;;;;;;4.13;2.47;;;;;;;19.59;100.00;99893.91;5094852;28;20212;-78
2022/06/17 06:54:15;;;;;;;3.80;2.50;;;;;;;19.72;100.00;99897.22;5095115;28;20192;-80
2022/06/17 06:56:43;;;;;;;4.75;2.88;;;;;;;20.08;100.00;99894.88;5095097;28;20274;-79
2022/06/17 06:59:13;;;;;;;4.75;2.83;;;;;;;20.09;100.00;99883.97;5098198;28;20203;-79
2022/06/17 07:01:41;;;;;;;6.30;3.00;;;;;;;20.04;100.00;99877.28;5095330;28;20199;-79
2022/06/17 07:04:10;;;;;;;4.13;2.60;;;;;;;19.99;100.00;99886.63;5093681;28;20194;-80
2022/06/17 07:06:39;;;;;;;4.50;2.70;;;;;;;20.21;100.00;99890.03;5091371;28;20200;-80
2022/06/17 07:09:08;;;;;;;5.35;2.65;;;;;;;20.15;100.00;99890.59;5092825;28;20199;-79
2022/06/17 07:11:37;;;;;;;5.85;2.50;;;;;;;20.49;100.00;99889.22;5094267;28;20212;-80
2022/06/17 07:14:05;;;;;;;5.13;2.53;;;;;;;20.52;100.00;99888.91;5073820;28;20286;-79
2022/06/17 07:16:34;;;;;;;7.07;2.63;;;;;;;20.73;100.00;99907.56;5095235;28;20608;-79
2022/06/17 07:19:07;;;;;;;3.72;2.63;;;;;;;20.52;100.00;99904.22;5092886;28;20700;-79
2022/06/17 07:21:35;;;;;;;6.93;2.70;;;;;;;20.63;100.00;99892.44;5092880;28;20199;-79
2022/06/17 07:24:07;;;;;;;5.00;2.78;;;;;;;20.52;100.00;99888.06;5094771;28;20222;-80
2022/06/17 07:26:38;;;;;;;7.07;2.80;;;;;;;20.50;100.00;99880.13;5097351;27;20200;-80
2022/06/17 07:29:08;;;;;;;5.10;2.72;;;;;;;20.93;100.00;99872.50;5095024;28;20191;-80
2022/06/17 07:31:36;;;;;;;4.47;2.33;;;;;;;21.06;100.00;99876.59;5091537;28;20247;-80
2022/06/17 07:34:05;;;;;;;3.70;2.30;;;;;;;21.23;100.00;99872.28;5089539;28;20612;-79
2022/06/17 07:42:08;;;;;;;4.10;2.35;;;;;;;21.48;100.00;99889.63;5094346;28;20217;-79
2022/06/17 07:44:37;;;;;;;2.78;2.10;;;;;;;21.29;100.00;99897.81;5094542;28;20249;-79
2022/06/17 07:47:07;;;;;;;4.28;2.10;;;;;;;21.45;100.00;99894.47;5089841;28;20253;-79
2022/06/17 07:49:37;;;;;;;4.93;2.03;;;;;;;21.76;88.04;99882.38;5075274;28;20306;-79
2022/06/17 07:52:08;;;;;;;4.03;2.20;;;;;;;22.01;82.23;99867.28;5092890;28;20250;-79
2022/06/17 07:54:38;;;;;;;3.50;2.10;;;;;;;22.11;75.74;99873.50;5092540;28;20202;-80
2022/06/17 07:57:08;;;;;;;3.85;1.80;;;;;;;22.03;70.73;99867.97;5094745;28;20206;-80
2022/06/17 07:59:37;;;;;;;3.28;1.70;;;;;;;22.08;73.26;99871.06;5093666;28;20240;-80
2022/06/17 08:02:06;;;;;;;2.65;1.98;;;;;;;22.60;69.88;99876.59;5091505;28;20192;-79
2022/06/17 08:04:35;;;;;;;3.95;1.90;;;;;;;22.84;69.55;99881.34;5092969;28;20192;-80
2022/06/17 08:07:05;;;;;;;5.18;1.75;;;;;;;22.37;73.12;99869.97;5091558;28;20201;-79
2022/06/17 08:09:33;;;;;;;4.88;2.10;;;;;;;22.55;77.36;99877.03;5094084;28;20203;-79
2022/06/17 08:12:07;;;;;;;4.13;2.40;;;;;;;22.40;75.08;99885.88;5091716;28;20298;-79
2022/06/17 08:14:43;;;;;;;6.75;2.00;;;;;;;22.30;70.95;99883.28;5093103;28;20197;-79
2022/06/17 08:17:13;;;;;;;2.10;1.70;;;;;;;22.31;69.01;99884.13;5094323;28;20195;-79
2022/06/17 08:19:43;;;;;;;2.63;1.88;;;;;;;22.33;69.06;99879.41;5090266;28;20199;-79
2022/06/17 08:22:12;;;;;;;3.70;2.30;;;;;;;22.15;71.44;99868.63;5092120;28;20221;-79
2022/06/17 08:24:41;;;;;;;1.90;1.77;;;;;;;22.68;67.89;99860.44;5087221;28;20200;-79
2022/06/17 08:27:15;;;;;;;4.65;2.00;;;;;;;22.69;69.48;99859.44;5092891;28;20254;-79
2022/06/17 08:29:45;;;;;;;4.38;2.28;;;;;;;21.95;74.65;99847.16;5094336;28;20206;-79
2022/06/17 08:35:03;;;;;;;4.28;1.92;;;;;;;23.09;71.75;99849.91;5095047;27;20299;-80
2022/06/17 08:37:33;;;;;;;2.15;1.65;;;;;;;22.82;70.51;99832.84;5085618;28;20204;-79
2022/06/17 08:40:14;;;;;;;2.65;1.80;;;;;;;23.49;69.33;99842.97;5094054;28;20207;-79
2022/06/17 08:42:51;;;;;;;4.78;1.80;;;;;;;23.61;65.34;99842.50;5096379;28;20207;-79
2022/06/17 08:45:33;;;;;;;3.85;1.65;;;;;;;23.69;62.35;99857.94;5096374;28;20225;-79
2022/06/17 08:48:15;;;;;;;4.40;1.63;;;;;;;23.71;60.82;99853.19;5093659;28;20195;-79
2022/06/17 08:50:58;;;;;;;2.70;1.70;;;;;;;23.41;62.72;99851.88;5092125;28;20192;-79
2022/06/17 08:53:39;;;;;;;3.38;1.70;;;;;;;23.58;63.78;99841.97;5092253;28;20195;-79
2022/06/17 08:56:16;;;;;;;1.67;1.58;;;;;;;23.79;62.08;99847.81;5095935;27;20203;-80
2022/06/17 08:58:55;;;;;;;3.08;1.85;;;;;;;23.32;63.96;99850.16;5091988;28;20271;-80
2022/06/17 09:01:34;;;;;;;4.68;2.38;;;;;;;23.53;60.34;99855.97;5093353;28;20191;-79
2022/06/17 09:04:15;;;;;;;5.57;3.10;;;;;;;23.68;59.05;99856.25;5091986;28;20278;-79
2022/06/17 09:06:57;;;;;;;4.60;4.20;;;;;;;23.75;60.11;99856.44;5093083;28;20195;-79
2022/06/17 09:09:47;;;;;;;4.68;1.90;;;;;;;23.87;62.78;99846.97;5093302;28;20195;-79
2022/06/17 09:12:25;;;;;;;3.92;1.90;;;;;;;23.96;59.82;99849.53;5094245;28;20226;-79
2022/06/17 09:15:06;;;;;;;3.38;1.77;;;;;;;23.73;60.88;99851.16;5093438;28;20184;-79
2022/06/17 09:17:50;;;;;;;2.92;1.70;;;;;;;23.73;63.32;99851.16;5093298;28;20232;-79
2022/06/17 09:20:24;;;;;;;5.30;2.10;;;;;;;23.91;62.22;99841.06;5095393;28;20196;-79
2022/06/17 09:22:58;;;;;;;3.28;2.00;;;;;;;24.14;59.98;99845.84;5097774;28;20196;-79
2022/06/17 09:25:33;;;;;;;5.03;2.03;;;;;;;23.50;62.84;99836.53;5099546;27;20207;-79
2022/06/17 09:28:03;;;;;;;2.90;2.08;;;;;;;24.17;62.92;99830.09;5097850;27;20206;-79
2022/06/17 09:30:38;;;;;;;4.55;2.00;;;;;;;24.20;60.15;99835.16;5096963;28;20275;-79
2022/06/17 09:33:15;;;;;;;4.05;1.80;;;;;;;24.29;56.53;99822.47;5096945;28;20217;-79
2022/06/17 09:35:48;;;;;;;3.00;1.50;;;;;;;24.33;55.33;99832.00;5058656;28;20207;-79
2022/06/17 09:38:21;;;;;;;2.90;1.65;;;;;;;24.72;54.81;99812.28;5092410;28;20200;-80
2022/06/17 09:40:55;;;;;;;2.60;1.70;;;;;;;24.73;55.55;99822.97;5097245;28;20192;-80
2022/06/17 09:43:31;;;;;;;4.70;1.98;;;;;;;24.55;57.08;99825.88;5095350;28;20199;-79
2022/06/17 09:46:07;;;;;;;4.63;2.05;;;;;;;24.60;58.32;99827.19;5094584;28;20221;-80
2022/06/17 09:48:44;;;;;;;3.03;1.83;;;;;;;24.77;58.42;99823.44;5092228;28;20291;-80
2022/06/17 09:51:17;;;;;;;3.92;1.80;;;;;;;24.93;55.30;99828.84;5092763;28;20199;-80
2022/06/17 09:53:53;;;;;;;2.75;1.50;;;;;;;24.88;55.04;99833.06;5095741;28;20223;-79
2022/06/17 09:56:27;;;;;;;2.72;1.73;;;;;;;25.20;52.19;99835.72;5097525;28;20207;-80
2022/06/17 09:59:01;;;;;;;3.13;1.73;;;;;;;25.26;51.47;99826.84;5096510;28;20719;-80
2022/06/17 10:01:30;;;;;;;4.38;1.90;;;;;;;25.66;48.60;99835.81;5094593;28;20187;-79
2022/06/17 10:04:02;;;;;;;1.85;1.40;;;;;;;25.75;49.43;99831.22;5095949;28;20307;-80
2022/06/17 10:06:39;;;;;;;4.43;1.80;;;;;;;24.89;53.73;99832.88;5096823;28;20560;-79
2022/06/17 10:09:24;;;;;;;3.90;1.67;;;;;;;25.61;50.19;99832.81;5099412;27;20203;-79
2022/06/17 10:12:01;;;;;;;3.05;1.65;;;;;;;25.95;49.92;99840.56;5093237;28;20211;-80
2022/06/17 10:14:47;;;;;;;1.90;1.50;;;;;;;26.31;45.66;99831.81;5096319;28;20201;-79
2022/06/17 10:20:20;;;;;;;1.95;1.45;;;;;;;24.77;49.66;99837.84;5095059;28;20650;-78
2022/06/17 10:23:00;;;;;;;4.40;1.60;;;;;;;24.90;49.03;99829.19;5092440;28;20199;-79
2022/06/17 10:25:48;;;;;;;1.88;1.35;;;;;;;25.14;47.05;99828.28;5097047;27;20210;-79
2022/06/17 10:28:46;;;;;;;2.67;1.50;;;;;;;25.92;47.67;99830.09;5095872;28;20227;-79
2022/06/17 10:31:23;;;;;;;1.88;1.50;;;;;;;26.25;46.57;99825.25;5094909;28;20249;-79
2022/06/17 10:33:53;;;;;;;2.03;1.50;;;;;;;25.26;50.71;99834.16;5075926;28;20242;-79
2022/06/17 10:36:22;;;;;;;4.35;1.75;;;;;;;24.92;50.31;99842.56;5083549;28;20200;-79
2022/06/17 10:38:51;;;;;;;2.53;1.52;;;;;;;24.71;51.30;99830.41;5093737;28;20203;-79
2022/06/17 10:41:20;;;;;;;2.78;1.50;;;;;;;25.98;48.28;99832.09;5093757;28;20191;-79
2022/06/17 10:43:51;;;;;;;1.73;1.52;;;;;;;26.82;45.71;99830.16;5097709;27;20226;-79
2022/06/17 10:46:22;;;;;;;2.60;1.50;;;;;;;27.20;43.82;99830.94;5095852;28;20188;-79
2022/06/17 10:48:56;;;;;;;2.63;1.33;;;;;;;26.60;41.74;99823.75;5092936;28;20275;-79
2022/06/17 10:51:28;;;;;;;3.65;1.13;;;;;;;26.32;39.24;99825.34;5095902;28;20192;-79
2022/06/17 10:54:02;;;;;;;2.28;1.30;;;;;;;25.25;42.32;99821.63;5094983;28;20216;-79
2022/06/17 10:56:36;;;;;;;2.75;1.42;;;;;;;26.07;42.53;99813.88;5094329;28;20219;-79
2022/06/17 10:59:08;;;;;;;2.47;1.10;;;;;;;26.75;39.15;99813.75;5093101;28;20222;-79
2022/06/17 11:01:52;;;;;;;1.90;1.27;;;;;;;27.07;40.09;99811.72;5095701;28;20220;-79
2022/06/17 11:04:29;;;;;;;2.75;1.30;;;;;;;27.53;38.79;99806.88;5095073;28;20199;-80
2022/06/17 11:07:02;;;;;;;2.22;1.30;;;;;;;27.92;38.04;99798.31;5095466;28;20191;-80
2022/06/17 11:09:36;;;;;;;1.92;1.20;;;;;;;27.70;39.57;99807.50;5091624;28;20206;-79
2022/06/17 11:12:14;;;;;;;1.48;1.13;;;;;;;28.44;38.60;99799.81;5092988;28;20187;-80
2022/06/17 11:14:51;;;;;;;3.10;1.40;;;;;;;26.86;41.29;99814.31;5095738;28;20188;-79
2022/06/17 11:17:28;;;;;;;2.45;1.50;;;;;;;27.90;39.26;99808.56;5094851;28;20202;-79
2022/06/17 11:19:58;;;;;;;1.73;1.20;;;;;;;28.04;39.83;99811.41;5093591;28;20344;-80
2022/06/17 11:22:34;;;;;;;3.95;1.40;;;;;;;27.53;39.62;99801.41;5092516;28;20208;-79
2022/06/17 11:25:07;;;;;;;1.73;1.20;;;;;;;27.28;40.35;99813.66;5095247;28;20191;-80
2022/06/17 11:27:39;;;;;;;2.00;1.40;;;;;;;28.20;37.18;99805.69;5094764;28;20247;-80
2022/06/17 11:30:24;;;;;;;2.47;1.25;;;;;;;27.66;38.05;99808.91;5092420;28;20203;-79
2022/06/17 11:32:54;;;;;;;2.58;1.40;;;;;;;28.01;37.12;99804.47;5093206;28;20219;-79
2022/06/17 11:35:29;;;;;;;2.83;1.30;;;;;;;28.21;37.21;99794.59;5089629;28;20215;-80
2022/06/17 11:38:00;;;;;;;2.55;1.50;;;;;;;28.66;36.36;99797.91;5090027;28;20234;-79
2022/06/17 11:40:35;;;;;;;2.17;1.50;;;;;;;28.95;35.70;99793.25;5095220;28;20274;-80
2022/06/17 11:43:09;;;;;;;2.50;1.25;;;;;;;29.00;35.86;99783.44;5094525;28;20195;-79
2022/06/17 11:45:42;;;;;;;2.08;1.48;;;;;;;29.36;35.32;99790.53;5094615;28;20199;-79
2022/06/17 11:48:20;;;;;;;2.35;1.17;;;;;;;30.22;33.25;99779.00;5094850;28;20201;-79
2022/06/17 11:51:03;;;;;;;1.90;0.90;;;;;;;29.19;33.11;99781.84;5093108;28;20274;-80
2022/06/17 11:53:42;;;;;;;1.25;1.15;;;;;;;29.66;32.69;99774.69;5094166;28;20299;-80
2022/06/17 11:56:11;;;;;;;1.52;1.10;;;;;;;30.22;30.54;99768.06;5092362;28;20192;-79
2022/06/17 11:59:07;;;;;;;1.02;0.90;;;;;;;28.20;33.44;99781.16;5094642;28;20199;-80
2022/06/17 12:01:36;;;;;;;1.98;1.10;;;;;;;28.53;32.54;99759.63;5091196;28;20199;-80
2022/06/17 12:04:06;;;;;;;1.63;0.95;;;;;;;29.02;32.30;99756.78;5093232;28;20215;-80
2022/06/17 12:06:46;;;;;;;3.50;1.15;;;;;;;27.70;33.57;99755.78;5057001;28;20200;-79